Airfield :
LOGIN :

Register | Disclaimer

   EN    FR    IT 

 










Legend :    VFR   Marginal VFR   IFR   Intensive IFR   Very Intensive IFR
Visi :
Ceiling :
>= 8 km
>= 3000ft
5 to 8 km
1000 to 3000 ft
1500m to 5 km
500 to 1000 ft
800 to 1500m
200 to 500 ft
< 800m
< 200 ft
Symbols :   Thunderstorms  Fog  Heavy snow  Heavy precipitations  Wind > 20 kt
SIGMETs :     Misc.  Thunderstorms  Icing  Turbulence  Mountain Waves  Volcanic Ashes






- Airport Elevation : 527 ft
- IATA code : DBV


LDDU - Dubrovnik

CURRENT METAR :
  • 200800Z 17006KT 120V230 CAVOK 23/05 Q1027 BECMG 28008KT

EXPIRED METARs :
  • 200730Z 18005KT 130V240 CAVOK 23/08 Q1027 BECMG 28008KT
  • 200700Z 28003KT 200V340 CAVOK 22/08 Q1027 BECMG 28008KT
  • 200630Z VRB01KT CAVOK 23/06 Q1026 NOSIG
  • 200600Z 08003KT 020V150 CAVOK 21/04 Q1026 NOSIG
  • 200530Z 07006KT CAVOK 20/04 Q1026 NOSIG

TAF TAF LDDU
Valid from the 20 at 06:00 until the 21 at 06:00 UTC


200525Z 2006/2106 08008KT CAVOK TX24/2010Z TN14/2104Z
BECMG 2007/2009 28008KT
TEMPO 2012/2018 30015KT
BECMG 2019/2021 35005KT



MET'MAP, your aeronautical weather chart ! - Copyright ORBIFLY December 2007 - Disclaimer

ORBIFLY MET'MAP TEAM :

Programming & Development : Alexandra Zaïnal
Original concept : Baudouin d'Aumeries
Technical & hardware support : Manuel Goepfert
Assistance : Marc-Olivier Méhu

Contact : metmap@orbifly.com




SOURCES & CREDITS :

   NOAA